sensor_id;sensor_type;location;lat;lon;timestamp;pressure;altitude;pressure_sealevel;temperature;humidity
63306;BME280;50735;52.060;1.248;2023-03-26T00:00:27;100186.65;;;8.65;49.95
63306;BME280;50735;52.060;1.248;2023-03-26T00:02:59;100177.54;;;8.99;50.77
63306;BME280;50735;52.060;1.248;2023-03-26T00:05:31;100175.01;;;9.33;50.68
63306;BME280;50735;52.060;1.248;2023-03-26T00:08:02;100170.92;;;8.96;50.62
63306;BME280;50735;52.060;1.248;2023-03-26T00:10:35;100169.55;;;9.06;50.43
63306;BME280;50735;52.060;1.248;2023-03-26T00:13:08;100168.15;;;9.06;50.36
63306;BME280;50735;52.060;1.248;2023-03-26T00:15:39;100166.54;;;9.06;50.44
63306;BME280;50735;52.060;1.248;2023-03-26T00:18:11;100163.24;;;9.14;50.15
63306;BME280;50735;52.060;1.248;2023-03-26T00:20:43;100163.11;;;9.43;50.11
63306;BME280;50735;52.060;1.248;2023-03-26T00:23:14;100161.27;;;9.27;49.94
63306;BME280;50735;52.060;1.248;2023-03-26T00:25:46;100156.45;;;9.31;49.87
63306;BME280;50735;52.060;1.248;2023-03-26T00:28:18;100154.08;;;9.41;49.75
63306;BME280;50735;52.060;1.248;2023-03-26T00:30:57;100148.66;;;9.70;49.59
63306;BME280;50735;52.060;1.248;2023-03-26T00:33:30;100145.90;;;9.57;49.58
63306;BME280;50735;52.060;1.248;2023-03-26T00:36:03;100141.00;;;9.63;49.50
63306;BME280;50735;52.060;1.248;2023-03-26T00:38:36;100136.59;;;9.65;49.43
63306;BME280;50735;52.060;1.248;2023-03-26T00:41:10;100133.42;;;9.66;49.72
63306;BME280;50735;52.060;1.248;2023-03-26T00:43:44;100134.43;;;9.63;49.63
63306;BME280;50735;52.060;1.248;2023-03-26T00:46:17;100126.02;;;9.68;49.69
63306;BME280;50735;52.060;1.248;2023-03-26T00:48:49;100121.34;;;9.54;49.61
63306;BME280;50735;52.060;1.248;2023-03-26T00:51:21;100118.63;;;9.71;49.58
63306;BME280;50735;52.060;1.248;2023-03-26T00:53:52;100114.07;;;9.71;49.71
63306;BME280;50735;52.060;1.248;2023-03-26T00:56:24;100107.61;;;9.71;49.85
63306;BME280;50735;52.060;1.248;2023-03-26T00:58:56;100097.42;;;9.51;50.98
63306;BME280;50735;52.060;1.248;2023-03-26T01:01:28;100105.03;;;9.43;51.17
63306;BME280;50735;52.060;1.248;2023-03-26T01:04:21;100108.06;;;9.08;51.68
63306;BME280;50735;52.060;1.248;2023-03-26T01:06:54;100104.61;;;9.19;51.32
63306;BME280;50735;52.060;1.248;2023-03-26T01:09:32;100107.88;;;9.27;51.42
63306;BME280;50735;52.060;1.248;2023-03-26T01:12:06;100099.54;;;9.54;51.66
63306;BME280;50735;52.060;1.248;2023-03-26T01:14:39;100095.74;;;9.37;51.02
63306;BME280;50735;52.060;1.248;2023-03-26T01:17:12;100092.71;;;9.20;51.18
63306;BME280;50735;52.060;1.248;2023-03-26T01:19:48;100089.61;;;9.40;51.36
63306;BME280;50735;52.060;1.248;2023-03-26T01:22:24;100082.55;;;9.34;51.55
63306;BME280;50735;52.060;1.248;2023-03-26T01:24:56;100075.84;;;9.34;51.55
63306;BME280;50735;52.060;1.248;2023-03-26T01:27:32;100073.10;;;8.98;51.64
63306;BME280;50735;52.060;1.248;2023-03-26T01:30:10;100069.97;;;9.37;51.24
63306;BME280;50735;52.060;1.248;2023-03-26T01:32:50;100068.24;;;9.64;51.29
63306;BME280;50735;52.060;1.248;2023-03-26T01:35:30;100066.69;;;9.45;51.21
63306;BME280;50735;52.060;1.248;2023-03-26T01:38:12;100060.40;;;9.47;51.34
63306;BME280;50735;52.060;1.248;2023-03-26T01:40:52;100056.19;;;9.48;51.59
63306;BME280;50735;52.060;1.248;2023-03-26T01:43:30;100052.58;;;9.43;51.52
63306;BME280;50735;52.060;1.248;2023-03-26T01:46:06;100049.33;;;9.41;51.47
63306;BME280;50735;52.060;1.248;2023-03-26T01:48:42;100050.68;;;9.33;51.46
63306;BME280;50735;52.060;1.248;2023-03-26T01:51:26;100049.62;;;9.29;51.78
63306;BME280;50735;52.060;1.248;2023-03-26T01:53:59;100045.75;;;9.28;51.78
63306;BME280;50735;52.060;1.248;2023-03-26T01:56:38;100041.82;;;9.30;52.36
63306;BME280;50735;52.060;1.248;2023-03-26T01:59:24;100038.87;;;9.52;52.16
63306;BME280;50735;52.060;1.248;2023-03-26T02:02:05;100037.08;;;9.28;52.06
63306;BME280;50735;52.060;1.248;2023-03-26T02:04:44;100031.94;;;9.19;52.64
63306;BME280;50735;52.060;1.248;2023-03-26T02:07:22;100023.26;;;9.12;52.28
63306;BME280;50735;52.060;1.248;2023-03-26T02:09:58;100021.33;;;9.35;52.94
63306;BME280;50735;52.060;1.248;2023-03-26T02:12:31;100023.28;;;9.28;52.36
63306;BME280;50735;52.060;1.248;2023-03-26T02:15:05;100020.58;;;9.30;52.90
63306;BME280;50735;52.060;1.248;2023-03-26T02:17:37;100018.59;;;9.02;53.00
63306;BME280;50735;52.060;1.248;2023-03-26T02:20:12;100014.26;;;9.40;52.66
63306;BME280;50735;52.060;1.248;2023-03-26T02:22:45;100009.58;;;8.90;53.05
63306;BME280;50735;52.060;1.248;2023-03-26T02:25:18;100001.59;;;9.26;53.95
63306;BME280;50735;52.060;1.248;2023-03-26T02:27:52;99999.08;;;8.76;53.69
63306;BME280;50735;52.060;1.248;2023-03-26T02:30:24;99998.19;;;9.03;53.94
63306;BME280;50735;52.060;1.248;2023-03-26T02:32:56;99990.15;;;8.83;53.53
63306;BME280;50735;52.060;1.248;2023-03-26T02:35:28;99986.39;;;8.86;53.17
63306;BME280;50735;52.060;1.248;2023-03-26T02:38:00;99978.21;;;9.31;53.26
63306;BME280;50735;52.060;1.248;2023-03-26T02:40:32;99971.34;;;9.15;53.48
63306;BME280;50735;52.060;1.248;2023-03-26T02:43:04;99967.24;;;8.69;54.73
63306;BME280;50735;52.060;1.248;2023-03-26T02:45:36;99961.73;;;8.94;55.48
63306;BME280;50735;52.060;1.248;2023-03-26T02:48:08;99958.14;;;8.93;55.59
63306;BME280;50735;52.060;1.248;2023-03-26T02:50:39;99951.32;;;8.56;56.02
63306;BME280;50735;52.060;1.248;2023-03-26T02:53:11;99948.40;;;8.45;55.88
63306;BME280;50735;52.060;1.248;2023-03-26T02:55:43;99944.58;;;8.41;56.05
63306;BME280;50735;52.060;1.248;2023-03-26T02:58:15;99945.39;;;8.59;55.84
63306;BME280;50735;52.060;1.248;2023-03-26T03:00:47;99945.36;;;8.93;54.98
63306;BME280;50735;52.060;1.248;2023-03-26T03:03:18;99942.91;;;8.87;54.67
63306;BME280;50735;52.060;1.248;2023-03-26T03:05:50;99942.31;;;8.75;54.26
63306;BME280;50735;52.060;1.248;2023-03-26T03:08:23;99941.45;;;9.04;54.31
63306;BME280;50735;52.060;1.248;2023-03-26T03:10:57;99935.92;;;9.08;54.79
63306;BME280;50735;52.060;1.248;2023-03-26T03:13:29;99936.28;;;8.87;54.23
63306;BME280;50735;52.060;1.248;2023-03-26T03:16:01;99934.14;;;8.91;54.08
63306;BME280;50735;52.060;1.248;2023-03-26T03:18:34;99933.15;;;9.18;54.06
63306;BME280;50735;52.060;1.248;2023-03-26T03:21:06;99928.04;;;9.21;54.03
63306;BME280;50735;52.060;1.248;2023-03-26T03:23:38;99923.05;;;9.17;55.24
63306;BME280;50735;52.060;1.248;2023-03-26T03:26:14;99918.47;;;8.91;54.56
63306;BME280;50735;52.060;1.248;2023-03-26T03:28:46;99914.23;;;9.14;54.62
63306;BME280;50735;52.060;1.248;2023-03-26T03:31:19;99911.33;;;9.13;55.11
63306;BME280;50735;52.060;1.248;2023-03-26T03:33:51;99908.60;;;9.09;56.32
63306;BME280;50735;52.060;1.248;2023-03-26T03:36:22;99905.19;;;8.96;57.07
63306;BME280;50735;52.060;1.248;2023-03-26T03:38:54;99901.16;;;8.81;56.44
63306;BME280;50735;52.060;1.248;2023-03-26T03:41:27;99896.53;;;8.64;56.76
63306;BME280;50735;52.060;1.248;2023-03-26T03:43:59;99889.10;;;8.85;57.05
63306;BME280;50735;52.060;1.248;2023-03-26T03:46:31;99881.33;;;8.80;57.58
63306;BME280;50735;52.060;1.248;2023-03-26T03:49:02;99873.55;;;8.60;58.16
63306;BME280;50735;52.060;1.248;2023-03-26T03:51:34;99868.63;;;8.59;57.92
63306;BME280;50735;52.060;1.248;2023-03-26T03:54:06;99865.84;;;8.59;58.44
63306;BME280;50735;52.060;1.248;2023-03-26T03:56:38;99863.72;;;8.56;58.22
63306;BME280;50735;52.060;1.248;2023-03-26T03:59:10;99858.33;;;8.50;58.91
63306;BME280;50735;52.060;1.248;2023-03-26T04:01:42;99852.87;;;8.59;59.14
63306;BME280;50735;52.060;1.248;2023-03-26T04:04:14;99848.25;;;8.31;58.64
63306;BME280;50735;52.060;1.248;2023-03-26T04:06:46;99850.04;;;8.21;59.74
63306;BME280;50735;52.060;1.248;2023-03-26T04:09:18;99848.46;;;8.02;60.15
63306;BME280;50735;52.060;1.248;2023-03-26T04:11:50;99850.17;;;8.08;60.00
63306;BME280;50735;52.060;1.248;2023-03-26T04:14:21;99847.93;;;8.02;60.25
63306;BME280;50735;52.060;1.248;2023-03-26T04:16:53;99846.25;;;8.10;59.84
63306;BME280;50735;52.060;1.248;2023-03-26T04:19:26;99845.01;;;8.33;59.82
63306;BME280;50735;52.060;1.248;2023-03-26T04:21:58;99844.12;;;8.13;59.56
63306;BME280;50735;52.060;1.248;2023-03-26T04:24:30;99842.20;;;8.15;59.91
63306;BME280;50735;52.060;1.248;2023-03-26T04:27:03;99846.09;;;8.07;59.29
63306;BME280;50735;52.060;1.248;2023-03-26T04:29:39;99846.77;;;8.13;58.77
63306;BME280;50735;52.060;1.248;2023-03-26T04:32:16;99843.43;;;8.44;58.35
63306;BME280;50735;52.060;1.248;2023-03-26T04:34:50;99840.01;;;8.59;57.84
63306;BME280;50735;52.060;1.248;2023-03-26T04:37:25;99838.15;;;8.74;57.71
63306;BME280;50735;52.060;1.248;2023-03-26T04:39:57;99834.61;;;8.63;58.04
63306;BME280;50735;52.060;1.248;2023-03-26T04:42:29;99830.27;;;8.65;57.99
63306;BME280;50735;52.060;1.248;2023-03-26T04:45:01;99828.36;;;8.69;57.94
63306;BME280;50735;52.060;1.248;2023-03-26T04:47:33;99823.03;;;8.58;58.53
63306;BME280;50735;52.060;1.248;2023-03-26T04:50:07;99820.35;;;8.30;59.42
63306;BME280;50735;52.060;1.248;2023-03-26T04:52:40;99819.18;;;7.39;61.23
63306;BME280;50735;52.060;1.248;2023-03-26T04:55:20;99816.61;;;7.56;61.42
63306;BME280;50735;52.060;1.248;2023-03-26T04:57:56;99816.07;;;7.50;61.53
63306;BME280;50735;52.060;1.248;2023-03-26T05:00:28;99816.76;;;6.96;62.20
63306;BME280;50735;52.060;1.248;2023-03-26T05:03:00;99817.87;;;7.31;62.08
63306;BME280;50735;52.060;1.248;2023-03-26T05:05:32;99814.52;;;7.52;61.51
63306;BME280;50735;52.060;1.248;2023-03-26T05:08:04;99817.72;;;7.39;61.58
63306;BME280;50735;52.060;1.248;2023-03-26T05:10:35;99816.86;;;7.62;61.30
63306;BME280;50735;52.060;1.248;2023-03-26T05:13:07;99818.96;;;7.21;61.67
63306;BME280;50735;52.060;1.248;2023-03-26T05:15:39;99818.52;;;7.19;62.57
63306;BME280;50735;52.060;1.248;2023-03-26T05:18:11;99820.73;;;7.40;61.86
63306;BME280;50735;52.060;1.248;2023-03-26T05:20:43;99821.72;;;7.52;61.57
63306;BME280;50735;52.060;1.248;2023-03-26T05:23:15;99820.95;;;7.33;63.01
63306;BME280;50735;52.060;1.248;2023-03-26T05:25:46;99826.04;;;6.57;65.02
63306;BME280;50735;52.060;1.248;2023-03-26T05:28:18;99825.74;;;6.72;65.02
63306;BME280;50735;52.060;1.248;2023-03-26T05:30:50;99823.17;;;7.16;62.94
63306;BME280;50735;52.060;1.248;2023-03-26T05:33:22;99819.43;;;7.31;62.44
63306;BME280;50735;52.060;1.248;2023-03-26T05:36:03;99824.05;;;7.01;62.90
63306;BME280;50735;52.060;1.248;2023-03-26T05:38:35;99819.31;;;7.01;62.30
63306;BME280;50735;52.060;1.248;2023-03-26T05:41:09;99818.20;;;7.26;61.72
63306;BME280;50735;52.060;1.248;2023-03-26T05:43:40;99815.66;;;7.13;61.56
63306;BME280;50735;52.060;1.248;2023-03-26T05:46:12;99815.94;;;7.23;60.81
63306;BME280;50735;52.060;1.248;2023-03-26T05:48:45;99819.59;;;7.11;61.58
63306;BME280;50735;52.060;1.248;2023-03-26T05:51:17;99810.20;;;7.27;61.14
63306;BME280;50735;52.060;1.248;2023-03-26T05:53:49;99811.17;;;7.44;61.31
63306;BME280;50735;52.060;1.248;2023-03-26T05:56:20;99812.45;;;7.28;61.72
63306;BME280;50735;52.060;1.248;2023-03-26T05:58:52;99817.18;;;6.99;62.15
63306;BME280;50735;52.060;1.248;2023-03-26T06:01:26;99809.38;;;7.17;62.30
63306;BME280;50735;52.060;1.248;2023-03-26T06:03:58;99803.12;;;7.53;60.83
63306;BME280;50735;52.060;1.248;2023-03-26T06:06:30;99800.40;;;7.81;60.25
63306;BME280;50735;52.060;1.248;2023-03-26T06:09:02;99807.68;;;7.43;61.37
63306;BME280;50735;52.060;1.248;2023-03-26T06:11:33;99806.72;;;7.52;61.13
63306;BME280;50735;52.060;1.248;2023-03-26T06:14:06;99804.49;;;7.42;61.28
63306;BME280;50735;52.060;1.248;2023-03-26T06:16:37;99803.64;;;7.42;61.25
63306;BME280;50735;52.060;1.248;2023-03-26T06:19:09;99811.73;;;7.01;61.66
63306;BME280;50735;52.060;1.248;2023-03-26T06:21:41;99813.07;;;7.07;62.32
63306;BME280;50735;52.060;1.248;2023-03-26T06:24:13;99813.39;;;7.17;61.86
63306;BME280;50735;52.060;1.248;2023-03-26T06:26:45;99813.92;;;7.45;61.10
63306;BME280;50735;52.060;1.248;2023-03-26T06:29:17;99816.38;;;7.34;61.64
63306;BME280;50735;52.060;1.248;2023-03-26T06:31:49;99815.02;;;7.28;61.55
63306;BME280;50735;52.060;1.248;2023-03-26T06:34:21;99820.21;;;7.20;61.69
63306;BME280;50735;52.060;1.248;2023-03-26T06:36:53;99828.35;;;7.41;61.88
63306;BME280;50735;52.060;1.248;2023-03-26T06:39:25;99834.21;;;6.74;62.96
63306;BME280;50735;52.060;1.248;2023-03-26T06:41:57;99838.20;;;6.91;61.97
63306;BME280;50735;52.060;1.248;2023-03-26T06:44:29;99842.78;;;6.82;62.45
63306;BME280;50735;52.060;1.248;2023-03-26T06:47:01;99850.35;;;7.02;61.98
63306;BME280;50735;52.060;1.248;2023-03-26T06:49:32;99852.57;;;6.96;63.00
63306;BME280;50735;52.060;1.248;2023-03-26T06:52:04;99856.66;;;7.09;63.20
63306;BME280;50735;52.060;1.248;2023-03-26T06:54:36;99858.48;;;6.47;64.27
63306;BME280;50735;52.060;1.248;2023-03-26T06:57:08;99861.14;;;6.61;63.53
63306;BME280;50735;52.060;1.248;2023-03-26T06:59:40;99862.89;;;6.69;63.72
63306;BME280;50735;52.060;1.248;2023-03-26T07:02:12;99866.15;;;6.48;64.59
63306;BME280;50735;52.060;1.248;2023-03-26T07:04:44;99868.04;;;7.00;62.96
63306;BME280;50735;52.060;1.248;2023-03-26T07:07:16;99877.18;;;7.11;61.49
63306;BME280;50735;52.060;1.248;2023-03-26T07:09:47;99880.01;;;7.65;60.76
63306;BME280;50735;52.060;1.248;2023-03-26T07:12:19;99878.31;;;7.73;60.49
63306;BME280;50735;52.060;1.248;2023-03-26T07:14:51;99888.40;;;7.87;60.88
63306;BME280;50735;52.060;1.248;2023-03-26T07:17:24;99893.08;;;7.74;60.59
63306;BME280;50735;52.060;1.248;2023-03-26T07:19:55;99890.83;;;7.24;61.91
63306;BME280;50735;52.060;1.248;2023-03-26T07:22:28;99892.90;;;7.33;62.11
63306;BME280;50735;52.060;1.248;2023-03-26T07:25:01;99895.99;;;7.07;62.67
63306;BME280;50735;52.060;1.248;2023-03-26T07:27:36;99897.64;;;6.85;62.91
63306;BME280;50735;52.060;1.248;2023-03-26T07:30:20;99897.57;;;6.76;63.24
63306;BME280;50735;52.060;1.248;2023-03-26T07:32:59;99896.85;;;6.86;62.79
63306;BME280;50735;52.060;1.248;2023-03-26T07:35:37;99901.05;;;7.45;61.76
63306;BME280;50735;52.060;1.248;2023-03-26T07:38:24;99906.82;;;7.39;61.80
63306;BME280;50735;52.060;1.248;2023-03-26T07:41:05;99913.08;;;7.72;61.64
63306;BME280;50735;52.060;1.248;2023-03-26T07:43:48;99914.54;;;7.39;62.29
63306;BME280;50735;52.060;1.248;2023-03-26T07:46:27;99915.21;;;7.05;62.55
63306;BME280;50735;52.060;1.248;2023-03-26T07:49:00;99917.32;;;7.12;62.26
63306;BME280;50735;52.060;1.248;2023-03-26T07:51:33;99923.29;;;6.62;62.77
63306;BME280;50735;52.060;1.248;2023-03-26T07:54:07;99924.44;;;6.74;62.90
63306;BME280;50735;52.060;1.248;2023-03-26T07:56:44;99924.20;;;6.92;63.49
63306;BME280;50735;52.060;1.248;2023-03-26T07:59:23;99923.90;;;7.26;62.54
63306;BME280;50735;52.060;1.248;2023-03-26T08:02:17;99925.98;;;7.75;61.83
63306;BME280;50735;52.060;1.248;2023-03-26T08:05:08;99927.81;;;7.46;61.61
63306;BME280;50735;52.060;1.248;2023-03-26T08:07:54;99931.36;;;7.67;61.39
63306;BME280;50735;52.060;1.248;2023-03-26T08:10:34;99932.59;;;7.18;61.71
63306;BME280;50735;52.060;1.248;2023-03-26T08:13:18;99935.80;;;7.43;61.50
63306;BME280;50735;52.060;1.248;2023-03-26T08:15:58;99937.69;;;7.22;62.00
63306;BME280;50735;52.060;1.248;2023-03-26T08:18:42;99940.98;;;7.39;60.99
63306;BME280;50735;52.060;1.248;2023-03-26T08:21:20;99946.00;;;7.23;62.12
63306;BME280;50735;52.060;1.248;2023-03-26T08:24:00;99948.75;;;7.22;62.38
63306;BME280;50735;52.060;1.248;2023-03-26T08:26:40;99952.82;;;7.61;61.54
63306;BME280;50735;52.060;1.248;2023-03-26T08:29:21;99957.60;;;7.38;61.79
63306;BME280;50735;52.060;1.248;2023-03-26T08:31:55;99964.95;;;7.59;61.53
63306;BME280;50735;52.060;1.248;2023-03-26T08:34:27;99970.76;;;7.64;62.07
63306;BME280;50735;52.060;1.248;2023-03-26T08:36:59;99971.49;;;7.69;61.95
63306;BME280;50735;52.060;1.248;2023-03-26T08:39:31;99973.67;;;7.77;61.66
63306;BME280;50735;52.060;1.248;2023-03-26T08:42:18;99979.20;;;7.69;62.24
63306;BME280;50735;52.060;1.248;2023-03-26T08:45:20;99986.26;;;7.75;61.90
63306;BME280;50735;52.060;1.248;2023-03-26T08:49:12;99993.44;;;6.92;63.71
63306;BME280;50735;52.060;1.248;2023-03-26T08:52:08;100000.94;;;7.17;63.88
63306;BME280;50735;52.060;1.248;2023-03-26T08:54:53;100000.21;;;7.59;63.25
63306;BME280;50735;52.060;1.248;2023-03-26T08:58:05;100006.40;;;7.48;62.86
63306;BME280;50735;52.060;1.248;2023-03-26T09:00:57;100009.66;;;7.13;62.76
63306;BME280;50735;52.060;1.248;2023-03-26T09:03:52;100014.90;;;7.61;61.14
63306;BME280;50735;52.060;1.248;2023-03-26T09:06:49;100025.59;;;7.29;61.00
63306;BME280;50735;52.060;1.248;2023-03-26T09:10:45;100030.87;;;5.90;64.46
63306;BME280;50735;52.060;1.248;2023-03-26T09:13:38;100034.87;;;4.49;68.97
63306;BME280;50735;52.060;1.248;2023-03-26T09:16:47;100046.63;;;5.38;68.18
63306;BME280;50735;52.060;1.248;2023-03-26T09:19:39;100043.80;;;4.79;68.81
63306;BME280;50735;52.060;1.248;2023-03-26T09:22:32;100049.45;;;4.71;69.74
63306;BME280;50735;52.060;1.248;2023-03-26T09:26:03;100052.84;;;4.83;69.34
63306;BME280;50735;52.060;1.248;2023-03-26T09:28:59;100061.21;;;4.67;69.97
63306;BME280;50735;52.060;1.248;2023-03-26T09:31:50;100069.06;;;4.86;69.73
63306;BME280;50735;52.060;1.248;2023-03-26T09:34:31;100071.84;;;4.48;69.63
63306;BME280;50735;52.060;1.248;2023-03-26T09:37:15;100078.53;;;4.57;69.82
63306;BME280;50735;52.060;1.248;2023-03-26T09:39:59;100078.17;;;4.12;70.76
63306;BME280;50735;52.060;1.248;2023-03-26T09:42:40;100083.93;;;4.28;70.71
63306;BME280;50735;52.060;1.248;2023-03-26T09:45:37;100096.88;;;3.88;71.68
63306;BME280;50735;52.060;1.248;2023-03-26T09:48:23;100101.72;;;3.88;71.45
63306;BME280;50735;52.060;1.248;2023-03-26T09:51:12;100114.03;;;4.07;71.63
63306;BME280;50735;52.060;1.248;2023-03-26T09:53:59;100117.62;;;3.94;71.62
63306;BME280;50735;52.060;1.248;2023-03-26T09:56:43;100123.66;;;3.48;71.78
63306;BME280;50735;52.060;1.248;2023-03-26T10:00:00;100129.21;;;4.02;71.44
63306;BME280;50735;52.060;1.248;2023-03-26T10:02:43;100139.05;;;4.17;71.19
63306;BME280;50735;52.060;1.248;2023-03-26T10:05:26;100142.53;;;3.62;72.01
63306;BME280;50735;52.060;1.248;2023-03-26T10:08:14;100145.69;;;3.66;71.39
63306;BME280;50735;52.060;1.248;2023-03-26T10:10:54;100152.76;;;3.88;71.26
63306;BME280;50735;52.060;1.248;2023-03-26T10:13:32;100158.80;;;3.78;71.18
63306;BME280;50735;52.060;1.248;2023-03-26T10:16:18;100164.64;;;4.25;70.59
63306;BME280;50735;52.060;1.248;2023-03-26T10:19:01;100172.29;;;3.82;71.00
63306;BME280;50735;52.060;1.248;2023-03-26T10:21:45;100183.17;;;4.33;70.01
63306;BME280;50735;52.060;1.248;2023-03-26T10:24:33;100187.07;;;3.99;69.75
63306;BME280;50735;52.060;1.248;2023-03-26T10:27:18;100190.54;;;4.57;69.64
63306;BME280;50735;52.060;1.248;2023-03-26T10:30:02;100196.54;;;4.05;69.85
63306;BME280;50735;52.060;1.248;2023-03-26T10:32:43;100203.71;;;4.10;68.87
63306;BME280;50735;52.060;1.248;2023-03-26T10:35:23;100208.70;;;4.46;69.92
63306;BME280;50735;52.060;1.248;2023-03-26T10:38:04;100218.24;;;4.26;69.24
63306;BME280;50735;52.060;1.248;2023-03-26T10:40:50;100227.55;;;4.28;70.55
63306;BME280;50735;52.060;1.248;2023-03-26T10:44:38;100230.82;;;4.63;69.18
63306;BME280;50735;52.060;1.248;2023-03-26T10:47:33;100240.41;;;4.19;69.50
63306;BME280;50735;52.060;1.248;2023-03-26T10:50:51;100248.11;;;4.60;68.20
63306;BME280;50735;52.060;1.248;2023-03-26T10:53:31;100254.09;;;4.21;67.90
63306;BME280;50735;52.060;1.248;2023-03-26T10:56:17;100258.91;;;4.26;67.62
63306;BME280;50735;52.060;1.248;2023-03-26T10:58:51;100265.98;;;4.16;67.88
63306;BME280;50735;52.060;1.248;2023-03-26T11:01:34;100276.80;;;3.92;68.58
63306;BME280;50735;52.060;1.248;2023-03-26T11:04:24;100279.71;;;3.86;66.89
63306;BME280;50735;52.060;1.248;2023-03-26T11:07:07;100283.14;;;4.33;66.97
63306;BME280;50735;52.060;1.248;2023-03-26T11:09:47;100294.55;;;3.80;66.88
63306;BME280;50735;52.060;1.248;2023-03-26T11:12:27;100296.58;;;4.28;66.25
63306;BME280;50735;52.060;1.248;2023-03-26T11:15:12;100304.15;;;3.94;66.79
63306;BME280;50735;52.060;1.248;2023-03-26T11:17:56;100309.99;;;3.87;67.88
63306;BME280;50735;52.060;1.248;2023-03-26T11:20:36;100312.24;;;3.98;67.99
63306;BME280;50735;52.060;1.248;2023-03-26T11:23:20;100316.31;;;4.08;66.74
63306;BME280;50735;52.060;1.248;2023-03-26T11:26:04;100316.45;;;4.89;66.20
63306;BME280;50735;52.060;1.248;2023-03-26T11:28:53;100316.27;;;4.99;65.19
63306;BME280;50735;52.060;1.248;2023-03-26T11:31:37;100325.64;;;3.95;65.64
63306;BME280;50735;52.060;1.248;2023-03-26T11:34:14;100328.74;;;4.06;66.53
63306;BME280;50735;52.060;1.248;2023-03-26T11:36:49;100339.41;;;4.17;66.00
63306;BME280;50735;52.060;1.248;2023-03-26T11:39:25;100343.78;;;4.01;65.21
63306;BME280;50735;52.060;1.248;2023-03-26T11:42:04;100343.35;;;4.56;64.29
63306;BME280;50735;52.060;1.248;2023-03-26T11:44:39;100354.55;;;4.42;63.92
63306;BME280;50735;52.060;1.248;2023-03-26T11:47:19;100354.37;;;4.79;64.51
63306;BME280;50735;52.060;1.248;2023-03-26T11:49:54;100361.60;;;4.60;64.20
63306;BME280;50735;52.060;1.248;2023-03-26T11:52:27;100369.07;;;4.60;62.97
63306;BME280;50735;52.060;1.248;2023-03-26T11:54:59;100377.67;;;4.31;64.05
63306;BME280;50735;52.060;1.248;2023-03-26T11:57:33;100385.31;;;4.56;62.68
63306;BME280;50735;52.060;1.248;2023-03-26T12:00:09;100386.74;;;4.59;62.72
63306;BME280;50735;52.060;1.248;2023-03-26T12:02:46;100389.99;;;5.19;62.31
63306;BME280;50735;52.060;1.248;2023-03-26T12:05:21;100394.49;;;5.02;62.27
63306;BME280;50735;52.060;1.248;2023-03-26T12:07:54;100401.74;;;5.11;62.03
63306;BME280;50735;52.060;1.248;2023-03-26T12:10:31;100406.79;;;5.13;60.83
63306;BME280;50735;52.060;1.248;2023-03-26T12:13:21;100409.96;;;5.82;61.10
63306;BME280;50735;52.060;1.248;2023-03-26T12:15:57;100415.20;;;5.89;60.66
63306;BME280;50735;52.060;1.248;2023-03-26T12:18:31;100422.64;;;5.88;59.81
63306;BME280;50735;52.060;1.248;2023-03-26T12:21:05;100428.03;;;5.47;58.62
63306;BME280;50735;52.060;1.248;2023-03-26T12:23:45;100434.86;;;5.31;59.59
63306;BME280;50735;52.060;1.248;2023-03-26T12:26:30;100442.63;;;5.62;60.23
63306;BME280;50735;52.060;1.248;2023-03-26T12:29:07;100444.25;;;6.01;58.33
63306;BME280;50735;52.060;1.248;2023-03-26T12:31:46;100454.37;;;6.26;58.74
63306;BME280;50735;52.060;1.248;2023-03-26T12:34:21;100455.32;;;6.05;58.06
63306;BME280;50735;52.060;1.248;2023-03-26T12:36:55;100457.16;;;5.98;57.87
63306;BME280;50735;52.060;1.248;2023-03-26T12:39:32;100467.72;;;5.78;57.81
63306;BME280;50735;52.060;1.248;2023-03-26T12:42:23;100473.67;;;5.73;56.09
63306;BME280;50735;52.060;1.248;2023-03-26T12:44:57;100481.26;;;5.47;57.31
63306;BME280;50735;52.060;1.248;2023-03-26T12:47:29;100490.73;;;5.57;57.24
63306;BME280;50735;52.060;1.248;2023-03-26T12:50:03;100493.66;;;6.06;57.58
63306;BME280;50735;52.060;1.248;2023-03-26T12:52:44;100499.26;;;6.05;55.26
63306;BME280;50735;52.060;1.248;2023-03-26T12:55:33;100505.06;;;6.61;55.58
63306;BME280;50735;52.060;1.248;2023-03-26T12:58:20;100506.17;;;6.32;54.87
63306;BME280;50735;52.060;1.248;2023-03-26T13:01:00;100511.75;;;5.82;55.42
63306;BME280;50735;52.060;1.248;2023-03-26T13:03:47;100511.40;;;5.55;55.61
63306;BME280;50735;52.060;1.248;2023-03-26T13:06:29;100518.69;;;5.64;57.54
63306;BME280;50735;52.060;1.248;2023-03-26T13:09:22;100523.27;;;5.51;56.93
63306;BME280;50735;52.060;1.248;2023-03-26T13:12:06;100530.24;;;5.47;57.09
63306;BME280;50735;52.060;1.248;2023-03-26T13:14:52;100524.37;;;5.48;55.46
63306;BME280;50735;52.060;1.248;2023-03-26T13:17:33;100533.58;;;5.26;56.67
63306;BME280;50735;52.060;1.248;2023-03-26T13:20:14;100536.62;;;4.85;56.19
63306;BME280;50735;52.060;1.248;2023-03-26T13:22:55;100537.98;;;5.23;56.94
63306;BME280;50735;52.060;1.248;2023-03-26T13:25:39;100546.23;;;5.35;55.43
63306;BME280;50735;52.060;1.248;2023-03-26T13:28:26;100549.57;;;5.26;56.54
63306;BME280;50735;52.060;1.248;2023-03-26T13:31:07;100556.35;;;5.15;55.23
63306;BME280;50735;52.060;1.248;2023-03-26T13:33:49;100565.09;;;5.71;54.73
63306;BME280;50735;52.060;1.248;2023-03-26T13:36:34;100570.53;;;5.54;54.93
63306;BME280;50735;52.060;1.248;2023-03-26T13:39:17;100570.43;;;5.91;53.42
63306;BME280;50735;52.060;1.248;2023-03-26T13:42:01;100573.26;;;6.42;51.71
63306;BME280;50735;52.060;1.248;2023-03-26T13:44:49;100585.74;;;6.47;53.39
63306;BME280;50735;52.060;1.248;2023-03-26T13:47:28;100593.20;;;6.53;52.10
63306;BME280;50735;52.060;1.248;2023-03-26T13:50:05;100597.62;;;6.97;63.37
63306;BME280;50735;52.060;1.248;2023-03-26T13:52:42;100602.35;;;6.85;51.13
63306;BME280;50735;52.060;1.248;2023-03-26T13:55:20;100609.82;;;6.59;54.42
63306;BME280;50735;52.060;1.248;2023-03-26T13:57:57;100615.87;;;6.04;51.35
63306;BME280;50735;52.060;1.248;2023-03-26T14:00:44;100616.58;;;5.59;52.18
63306;BME280;50735;52.060;1.248;2023-03-26T14:03:22;100624.22;;;5.36;52.64